sensor_id;sensor_type;location;lat;lon;timestamp;temperature;humidity
24087;DHT22;22893;50.572;7.234;2023-02-22T11:08:43;21.90;57.20
24087;DHT22;22893;50.572;7.234;2023-02-22T11:11:25;21.90;57.20
24087;DHT22;22893;50.572;7.234;2023-02-22T11:13:55;21.90;57.20
24087;DHT22;22893;50.572;7.234;2023-02-22T11:16:32;21.90;57.20
24087;DHT22;22893;50.572;7.234;2023-02-22T11:19:03;21.90;57.20
24087;DHT22;22893;50.572;7.234;2023-02-22T11:21:31;21.90;57.20
24087;DHT22;22893;50.572;7.234;2023-02-22T11:24:05;21.90;57.20
24087;DHT22;22893;50.572;7.234;2023-02-22T11:26:53;22.00;57.30
24087;DHT22;22893;50.572;7.234;2023-02-22T11:29:27;22.00;57.20
24087;DHT22;22893;50.572;7.234;2023-02-22T11:32:15;22.00;57.20
24087;DHT22;22893;50.572;7.234;2023-02-22T11:34:44;22.00;57.30
24087;DHT22;22893;50.572;7.234;2023-02-22T11:37:30;22.00;57.30
24087;DHT22;22893;50.572;7.234;2023-02-22T11:40:20;22.00;57.20
24087;DHT22;22893;50.572;7.234;2023-02-22T11:43:23;22.00;57.20
24087;DHT22;22893;50.572;7.234;2023-02-22T11:45:24;22.00;57.20
24087;DHT22;22893;50.572;7.234;2023-02-22T11:47:58;22.00;57.20
24087;DHT22;22893;50.572;7.234;2023-02-22T11:50:29;22.00;57.20
24087;DHT22;22893;50.572;7.234;2023-02-22T12:01:07;22.10;57.40
24087;DHT22;22893;50.572;7.234;2023-02-22T12:03:53;22.00;56.90
24087;DHT22;22893;50.572;7.234;2023-02-22T12:06:32;22.00;57.40
24087;DHT22;22893;50.572;7.234;2023-02-22T12:09:06;22.00;57.30
24087;DHT22;22893;50.572;7.234;2023-02-22T12:11:35;22.00;57.30
24087;DHT22;22893;50.572;7.234;2023-02-22T12:14:13;22.00;57.30
24087;DHT22;22893;50.572;7.234;2023-02-22T12:17:00;22.00;57.30
24087;DHT22;22893;50.572;7.234;2023-02-22T12:22:00;22.00;57.70
24087;DHT22;22893;50.572;7.234;2023-02-22T12:24:37;22.10;57.50
24087;DHT22;22893;50.572;7.234;2023-02-22T12:27:10;22.00;57.30
24087;DHT22;22893;50.572;7.234;2023-02-22T12:29:47;22.10;57.40
24087;DHT22;22893;50.572;7.234;2023-02-22T12:32:36;22.10;57.40
24087;DHT22;22893;50.572;7.234;2023-02-22T12:35:17;22.10;57.50
24087;DHT22;22893;50.572;7.234;2023-02-22T12:37:50;22.10;57.50
24087;DHT22;22893;50.572;7.234;2023-02-22T12:43:15;22.10;57.50
24087;DHT22;22893;50.572;7.234;2023-02-22T12:48:45;22.10;57.40
24087;DHT22;22893;50.572;7.234;2023-02-22T12:57:04;22.10;57.40
24087;DHT22;22893;50.572;7.234;2023-02-22T12:59:36;22.10;57.50
24087;DHT22;22893;50.572;7.234;2023-02-22T13:04:57;22.10;57.50
24087;DHT22;22893;50.572;7.234;2023-02-22T13:08:01;22.10;57.50
24087;DHT22;22893;50.572;7.234;2023-02-22T13:10:39;22.10;57.50
24087;DHT22;22893;50.572;7.234;2023-02-22T13:24:07;22.20;57.70
24087;DHT22;22893;50.572;7.234;2023-02-22T13:29:30;22.20;57.70
24087;DHT22;22893;50.572;7.234;2023-02-22T13:35:18;22.20;57.70
24087;DHT22;22893;50.572;7.234;2023-02-22T13:37:57;22.30;57.70
24087;DHT22;22893;50.572;7.234;2023-02-22T13:43:40;22.30;57.90
24087;DHT22;22893;50.572;7.234;2023-02-22T13:51:45;22.30;57.80
24087;DHT22;22893;50.572;7.234;2023-02-22T13:57:04;22.30;58.00
24087;DHT22;22893;50.572;7.234;2023-02-22T13:59:35;22.40;58.00
24087;DHT22;22893;50.572;7.234;2023-02-22T14:02:05;22.40;57.90
24087;DHT22;22893;50.572;7.234;2023-02-22T14:04:42;22.30;57.20
24087;DHT22;22893;50.572;7.234;2023-02-22T14:09:55;22.40;57.80
24087;DHT22;22893;50.572;7.234;2023-02-22T14:15:16;22.40;57.70
24087;DHT22;22893;50.572;7.234;2023-02-22T14:17:58;22.40;57.80
24087;DHT22;22893;50.572;7.234;2023-02-22T14:20:32;22.50;57.80
24087;DHT22;22893;50.572;7.234;2023-02-22T14:23:26;22.40;57.60
24087;DHT22;22893;50.572;7.234;2023-02-22T14:25:51;22.40;57.50
24087;DHT22;22893;50.572;7.234;2023-02-22T14:31:15;22.40;57.20
24087;DHT22;22893;50.572;7.234;2023-02-22T14:42:02;22.40;56.80
24087;DHT22;22893;50.572;7.234;2023-02-22T14:44:42;22.40;56.80
24087;DHT22;22893;50.572;7.234;2023-02-22T14:47:16;22.40;56.80
24087;DHT22;22893;50.572;7.234;2023-02-22T14:49:48;22.40;56.80
24087;DHT22;22893;50.572;7.234;2023-02-22T14:52:20;22.40;56.80
24087;DHT22;22893;50.572;7.234;2023-02-22T14:54:51;22.40;56.80
24087;DHT22;22893;50.572;7.234;2023-02-22T14:57:40;22.40;56.80
24087;DHT22;22893;50.572;7.234;2023-02-22T15:00:57;22.40;56.90
24087;DHT22;22893;50.572;7.234;2023-02-22T15:02:39;22.40;57.00
24087;DHT22;22893;50.572;7.234;2023-02-22T15:05:11;22.40;57.00
24087;DHT22;22893;50.572;7.234;2023-02-22T15:07:36;22.40;57.00
24087;DHT22;22893;50.572;7.234;2023-02-22T15:10:16;22.40;57.10
24087;DHT22;22893;50.572;7.234;2023-02-22T15:12:35;22.40;57.10
24087;DHT22;22893;50.572;7.234;2023-02-22T15:15:20;22.40;57.20
24087;DHT22;22893;50.572;7.234;2023-02-22T15:17:55;22.40;57.30
24087;DHT22;22893;50.572;7.234;2023-02-22T15:20:25;22.40;57.30
24087;DHT22;22893;50.572;7.234;2023-02-22T15:22:57;22.40;57.40
24087;DHT22;22893;50.572;7.234;2023-02-22T15:25:27;22.40;57.40
24087;DHT22;22893;50.572;7.234;2023-02-22T15:28:02;22.40;57.40
24087;DHT22;22893;50.572;7.234;2023-02-22T15:30:32;22.40;57.40
24087;DHT22;22893;50.572;7.234;2023-02-22T15:33:15;22.40;57.30
24087;DHT22;22893;50.572;7.234;2023-02-22T15:35:43;22.40;57.40
24087;DHT22;22893;50.572;7.234;2023-02-22T15:40:42;22.40;58.00
24087;DHT22;22893;50.572;7.234;2023-02-22T15:43:20;22.40;57.50
24087;DHT22;22893;50.572;7.234;2023-02-22T15:45:53;22.40;57.20
24087;DHT22;22893;50.572;7.234;2023-02-22T15:48:22;22.40;57.30
24087;DHT22;22893;50.572;7.234;2023-02-22T15:51:06;22.40;57.20
24087;DHT22;22893;50.572;7.234;2023-02-22T15:53:43;22.40;57.20
24087;DHT22;22893;50.572;7.234;2023-02-22T15:56:28;22.40;57.30
24087;DHT22;22893;50.572;7.234;2023-02-22T15:58:47;22.40;57.30
24087;DHT22;22893;50.572;7.234;2023-02-22T16:01:19;22.40;57.20
24087;DHT22;22893;50.572;7.234;2023-02-22T16:03:59;22.40;57.30
24087;DHT22;22893;50.572;7.234;2023-02-22T16:06:35;22.40;57.40
24087;DHT22;22893;50.572;7.234;2023-02-22T16:09:14;22.40;57.30
24087;DHT22;22893;50.572;7.234;2023-02-22T16:11:44;22.40;57.30
24087;DHT22;22893;50.572;7.234;2023-02-22T16:14:27;22.40;57.20
24087;DHT22;22893;50.572;7.234;2023-02-22T16:19:51;22.40;57.20
24087;DHT22;22893;50.572;7.234;2023-02-22T16:22:31;22.40;57.20
24087;DHT22;22893;50.572;7.234;2023-02-22T16:27:59;22.40;57.10
24087;DHT22;22893;50.572;7.234;2023-02-22T16:30:24;22.40;57.10
24087;DHT22;22893;50.572;7.234;2023-02-22T16:32:54;22.40;57.10
24087;DHT22;22893;50.572;7.234;2023-02-22T16:35:24;22.40;57.20
24087;DHT22;22893;50.572;7.234;2023-02-22T16:38:02;22.40;57.10
24087;DHT22;22893;50.572;7.234;2023-02-22T16:40:40;22.40;57.00
24087;DHT22;22893;50.572;7.234;2023-02-22T16:43:13;22.30;56.90
24087;DHT22;22893;50.572;7.234;2023-02-22T16:45:40;22.40;57.00
24087;DHT22;22893;50.572;7.234;2023-02-22T16:48:22;22.40;57.00
24087;DHT22;22893;50.572;7.234;2023-02-22T16:50:52;22.40;57.00
24087;DHT22;22893;50.572;7.234;2023-02-22T16:53:25;22.30;56.80
24087;DHT22;22893;50.572;7.234;2023-02-22T16:55:56;22.30;56.70
24087;DHT22;22893;50.572;7.234;2023-02-22T16:58:25;22.30;56.60
24087;DHT22;22893;50.572;7.234;2023-02-22T17:00:55;22.30;56.70
24087;DHT22;22893;50.572;7.234;2023-02-22T17:03:24;22.30;56.60
24087;DHT22;22893;50.572;7.234;2023-02-22T17:05:52;22.30;56.70
24087;DHT22;22893;50.572;7.234;2023-02-22T17:08:20;22.30;56.60
24087;DHT22;22893;50.572;7.234;2023-02-22T17:10:48;22.30;56.60
24087;DHT22;22893;50.572;7.234;2023-02-22T17:13:23;22.30;56.50
24087;DHT22;22893;50.572;7.234;2023-02-22T17:15:52;22.30;56.60
24087;DHT22;22893;50.572;7.234;2023-02-22T17:18:24;22.30;56.60
24087;DHT22;22893;50.572;7.234;2023-02-22T17:20:53;22.30;56.60
24087;DHT22;22893;50.572;7.234;2023-02-22T17:23:22;22.30;56.70
24087;DHT22;22893;50.572;7.234;2023-02-22T17:25:54;22.30;56.60
24087;DHT22;22893;50.572;7.234;2023-02-22T17:28:28;22.30;56.70
24087;DHT22;22893;50.572;7.234;2023-02-22T17:30:53;22.30;56.70
24087;DHT22;22893;50.572;7.234;2023-02-22T17:33:24;22.30;56.60
24087;DHT22;22893;50.572;7.234;2023-02-22T17:35:56;22.30;56.70
24087;DHT22;22893;50.572;7.234;2023-02-22T17:38:24;22.30;56.60
24087;DHT22;22893;50.572;7.234;2023-02-22T17:40:57;22.30;56.70
24087;DHT22;22893;50.572;7.234;2023-02-22T17:43:25;22.30;56.60
24087;DHT22;22893;50.572;7.234;2023-02-22T17:45:55;22.20;55.90
24087;DHT22;22893;50.572;7.234;2023-02-22T17:48:42;22.00;56.00
24087;DHT22;22893;50.572;7.234;2023-02-22T17:51:11;22.00;56.50
24087;DHT22;22893;50.572;7.234;2023-02-22T17:53:39;22.10;56.80
24087;DHT22;22893;50.572;7.234;2023-02-22T17:56:08;22.10;56.60
24087;DHT22;22893;50.572;7.234;2023-02-22T17:58:38;22.20;56.80
24087;DHT22;22893;50.572;7.234;2023-02-22T18:01:05;22.20;56.70
24087;DHT22;22893;50.572;7.234;2023-02-22T18:03:33;22.20;56.70
24087;DHT22;22893;50.572;7.234;2023-02-22T18:06:02;22.20;56.60
24087;DHT22;22893;50.572;7.234;2023-02-22T18:08:34;22.20;56.70
24087;DHT22;22893;50.572;7.234;2023-02-22T18:11:02;22.20;56.70
24087;DHT22;22893;50.572;7.234;2023-02-22T18:13:30;22.20;56.70
24087;DHT22;22893;50.572;7.234;2023-02-22T18:15:58;22.20;56.70
24087;DHT22;22893;50.572;7.234;2023-02-22T18:18:27;22.20;56.60
24087;DHT22;22893;50.572;7.234;2023-02-22T18:20:54;22.20;56.70
24087;DHT22;22893;50.572;7.234;2023-02-22T18:23:24;22.20;56.70
24087;DHT22;22893;50.572;7.234;2023-02-22T18:25:56;22.20;56.70
24087;DHT22;22893;50.572;7.234;2023-02-22T18:28:24;22.20;56.70
24087;DHT22;22893;50.572;7.234;2023-02-22T18:30:54;22.20;56.80
24087;DHT22;22893;50.572;7.234;2023-02-22T18:33:24;22.30;56.90
24087;DHT22;22893;50.572;7.234;2023-02-22T18:35:52;22.20;56.80
24087;DHT22;22893;50.572;7.234;2023-02-22T18:38:21;22.20;56.80
24087;DHT22;22893;50.572;7.234;2023-02-22T18:41:03;22.20;56.90
24087;DHT22;22893;50.572;7.234;2023-02-22T18:43:32;22.30;56.90
24087;DHT22;22893;50.572;7.234;2023-02-22T18:46:09;22.30;57.00
24087;DHT22;22893;50.572;7.234;2023-02-22T18:48:37;22.30;57.00
24087;DHT22;22893;50.572;7.234;2023-02-22T18:51:08;22.30;57.00
24087;DHT22;22893;50.572;7.234;2023-02-22T18:53:36;22.30;57.00
24087;DHT22;22893;50.572;7.234;2023-02-22T18:56:07;22.30;57.10
24087;DHT22;22893;50.572;7.234;2023-02-22T18:58:35;22.30;57.10
24087;DHT22;22893;50.572;7.234;2023-02-22T19:01:05;22.30;57.00
24087;DHT22;22893;50.572;7.234;2023-02-22T19:03:34;22.30;57.10
24087;DHT22;22893;50.572;7.234;2023-02-22T19:06:09;22.30;57.20
24087;DHT22;22893;50.572;7.234;2023-02-22T19:08:38;22.30;57.20
24087;DHT22;22893;50.572;7.234;2023-02-22T19:11:14;22.30;57.40
24087;DHT22;22893;50.572;7.234;2023-02-22T19:13:44;22.30;57.40
24087;DHT22;22893;50.572;7.234;2023-02-22T19:16:13;22.30;57.40
24087;DHT22;22893;50.572;7.234;2023-02-22T19:18:41;22.30;57.50
24087;DHT22;22893;50.572;7.234;2023-02-22T19:21:10;22.30;57.50
24087;DHT22;22893;50.572;7.234;2023-02-22T19:23:40;22.30;57.40
24087;DHT22;22893;50.572;7.234;2023-02-22T19:26:10;22.20;57.40
24087;DHT22;22893;50.572;7.234;2023-02-22T19:28:38;22.30;57.50
24087;DHT22;22893;50.572;7.234;2023-02-22T19:31:20;22.20;56.70
24087;DHT22;22893;50.572;7.234;2023-02-22T19:33:48;22.20;57.40
24087;DHT22;22893;50.572;7.234;2023-02-22T19:36:20;22.20;57.40
24087;DHT22;22893;50.572;7.234;2023-02-22T19:38:51;22.30;57.60
24087;DHT22;22893;50.572;7.234;2023-02-22T19:41:20;22.20;57.50
24087;DHT22;22893;50.572;7.234;2023-02-22T19:43:50;22.30;57.60
24087;DHT22;22893;50.572;7.234;2023-02-22T19:46:19;22.30;57.70
24087;DHT22;22893;50.572;7.234;2023-02-22T19:48:47;22.30;57.60
24087;DHT22;22893;50.572;7.234;2023-02-22T19:51:19;22.30;58.30
24087;DHT22;22893;50.572;7.234;2023-02-22T19:53:48;22.30;57.60
24087;DHT22;22893;50.572;7.234;2023-02-22T19:56:18;22.30;57.60
24087;DHT22;22893;50.572;7.234;2023-02-22T19:58:48;22.30;57.50
24087;DHT22;22893;50.572;7.234;2023-02-22T20:01:27;22.30;57.50
24087;DHT22;22893;50.572;7.234;2023-02-22T20:03:56;22.30;57.60
24087;DHT22;22893;50.572;7.234;2023-02-22T20:06:23;22.30;57.60
24087;DHT22;22893;50.572;7.234;2023-02-22T20:08:54;22.30;57.60
24087;DHT22;22893;50.572;7.234;2023-02-22T20:11:23;22.30;57.60
24087;DHT22;22893;50.572;7.234;2023-02-22T20:13:51;22.30;58.40
24087;DHT22;22893;50.572;7.234;2023-02-22T20:16:21;22.30;57.60
24087;DHT22;22893;50.572;7.234;2023-02-22T20:18:50;22.30;57.60
24087;DHT22;22893;50.572;7.234;2023-02-22T20:21:29;22.30;57.60
24087;DHT22;22893;50.572;7.234;2023-02-22T20:23:58;22.30;57.60
24087;DHT22;22893;50.572;7.234;2023-02-22T20:26:28;22.30;57.70
24087;DHT22;22893;50.572;7.234;2023-02-22T20:28:57;22.30;57.70
24087;DHT22;22893;50.572;7.234;2023-02-22T20:31:25;22.30;57.70
24087;DHT22;22893;50.572;7.234;2023-02-22T20:33:56;22.30;57.70
24087;DHT22;22893;50.572;7.234;2023-02-22T20:36:32;22.30;57.70
24087;DHT22;22893;50.572;7.234;2023-02-22T20:39:04;22.30;57.80
24087;DHT22;22893;50.572;7.234;2023-02-22T20:41:40;22.30;57.60
24087;DHT22;22893;50.572;7.234;2023-02-22T20:44:13;22.30;57.70
24087;DHT22;22893;50.572;7.234;2023-02-22T20:46:41;22.30;57.70
24087;DHT22;22893;50.572;7.234;2023-02-22T20:49:12;22.30;58.60
24087;DHT22;22893;50.572;7.234;2023-02-22T20:51:40;22.30;57.70
24087;DHT22;22893;50.572;7.234;2023-02-22T20:54:08;22.30;57.70
24087;DHT22;22893;50.572;7.234;2023-02-22T20:56:42;22.30;57.80
24087;DHT22;22893;50.572;7.234;2023-02-22T20:59:14;22.30;57.80
24087;DHT22;22893;50.572;7.234;2023-02-22T21:01:42;22.30;57.90
24087;DHT22;22893;50.572;7.234;2023-02-22T21:04:10;22.30;57.80
24087;DHT22;22893;50.572;7.234;2023-02-22T21:06:40;22.30;57.70
24087;DHT22;22893;50.572;7.234;2023-02-22T21:09:14;22.30;57.70
24087;DHT22;22893;50.572;7.234;2023-02-22T21:11:44;22.30;57.70
24087;DHT22;22893;50.572;7.234;2023-02-22T21:14:13;22.30;57.80
24087;DHT22;22893;50.572;7.234;2023-02-22T21:16:43;22.30;57.70
24087;DHT22;22893;50.572;7.234;2023-02-22T21:19:12;22.30;57.70
24087;DHT22;22893;50.572;7.234;2023-02-22T21:21:44;22.30;57.70
24087;DHT22;22893;50.572;7.234;2023-02-22T21:24:12;22.30;57.70
24087;DHT22;22893;50.572;7.234;2023-02-22T21:26:41;22.30;57.70
24087;DHT22;22893;50.572;7.234;2023-02-22T21:29:09;22.30;57.70
24087;DHT22;22893;50.572;7.234;2023-02-22T21:31:37;22.30;57.70
24087;DHT22;22893;50.572;7.234;2023-02-22T21:34:04;22.30;57.70
24087;DHT22;22893;50.572;7.234;2023-02-22T21:36:32;22.30;57.70
24087;DHT22;22893;50.572;7.234;2023-02-22T21:39:01;22.30;57.70
24087;DHT22;22893;50.572;7.234;2023-02-22T21:41:30;22.30;57.70
24087;DHT22;22893;50.572;7.234;2023-02-22T21:43:59;22.30;57.60
24087;DHT22;22893;50.572;7.234;2023-02-22T21:46:27;22.30;57.60
24087;DHT22;22893;50.572;7.234;2023-02-22T21:48:56;22.30;57.60
24087;DHT22;22893;50.572;7.234;2023-02-22T21:51:26;22.20;57.50
24087;DHT22;22893;50.572;7.234;2023-02-22T21:54:04;22.20;57.50
24087;DHT22;22893;50.572;7.234;2023-02-22T21:56:28;22.20;57.50
24087;DHT22;22893;50.572;7.234;2023-02-22T21:59:02;22.30;57.60
24087;DHT22;22893;50.572;7.234;2023-02-22T22:01:37;22.20;57.50
24087;DHT22;22893;50.572;7.234;2023-02-22T22:04:05;22.20;57.60
24087;DHT22;22893;50.572;7.234;2023-02-22T22:06:35;22.20;57.60
24087;DHT22;22893;50.572;7.234;2023-02-22T22:09:02;22.20;57.60
24087;DHT22;22893;50.572;7.234;2023-02-22T22:11:35;22.20;57.70
24087;DHT22;22893;50.572;7.234;2023-02-22T22:14:02;22.20;57.70
24087;DHT22;22893;50.572;7.234;2023-02-22T22:16:30;22.20;57.70
24087;DHT22;22893;50.572;7.234;2023-02-22T22:18:58;22.20;57.70
24087;DHT22;22893;50.572;7.234;2023-02-22T22:21:26;22.20;57.70
24087;DHT22;22893;50.572;7.234;2023-02-22T22:23:54;22.20;57.70
24087;DHT22;22893;50.572;7.234;2023-02-22T22:26:41;22.20;57.70
24087;DHT22;22893;50.572;7.234;2023-02-22T22:29:10;22.20;57.60
24087;DHT22;22893;50.572;7.234;2023-02-22T22:31:45;22.20;57.60
24087;DHT22;22893;50.572;7.234;2023-02-22T22:34:12;22.20;57.60
24087;DHT22;22893;50.572;7.234;2023-02-22T22:36:40;22.20;57.60
24087;DHT22;22893;50.572;7.234;2023-02-22T22:39:08;22.20;57.60
24087;DHT22;22893;50.572;7.234;2023-02-22T22:41:40;22.20;57.60
24087;DHT22;22893;50.572;7.234;2023-02-22T22:44:15;22.20;57.50
24087;DHT22;22893;50.572;7.234;2023-02-22T22:46:41;22.20;57.50
24087;DHT22;22893;50.572;7.234;2023-02-22T22:49:12;22.20;57.50
24087;DHT22;22893;50.572;7.234;2023-02-22T22:51:39;22.20;57.50
24087;DHT22;22893;50.572;7.234;2023-02-22T22:54:07;22.20;57.50
24087;DHT22;22893;50.572;7.234;2023-02-22T22:56:36;22.20;57.50
24087;DHT22;22893;50.572;7.234;2023-02-22T22:59:06;22.20;57.50
24087;DHT22;22893;50.572;7.234;2023-02-22T23:01:40;22.20;57.50
24087;DHT22;22893;50.572;7.234;2023-02-22T23:04:11;22.20;57.40
24087;DHT22;22893;50.572;7.234;2023-02-22T23:06:43;22.20;57.40
24087;DHT22;22893;50.572;7.234;2023-02-22T23:09:25;22.20;57.40
24087;DHT22;22893;50.572;7.234;2023-02-22T23:11:56;22.20;57.50
24087;DHT22;22893;50.572;7.234;2023-02-22T23:14:28;22.10;57.40
24087;DHT22;22893;50.572;7.234;2023-02-22T23:16:57;22.20;57.50
24087;DHT22;22893;50.572;7.234;2023-02-22T23:19:35;22.20;57.40
24087;DHT22;22893;50.572;7.234;2023-02-22T23:22:04;22.10;57.40
24087;DHT22;22893;50.572;7.234;2023-02-22T23:24:33;22.10;57.40
24087;DHT22;22893;50.572;7.234;2023-02-22T23:27:03;22.20;57.50
24087;DHT22;22893;50.572;7.234;2023-02-22T23:29:38;22.10;57.40
24087;DHT22;22893;50.572;7.234;2023-02-22T23:32:07;22.10;57.40
24087;DHT22;22893;50.572;7.234;2023-02-22T23:34:35;22.10;57.40
24087;DHT22;22893;50.572;7.234;2023-02-22T23:37:05;22.10;57.30
24087;DHT22;22893;50.572;7.234;2023-02-22T23:39:34;22.10;57.30
24087;DHT22;22893;50.572;7.234;2023-02-22T23:42:02;22.10;57.30
24087;DHT22;22893;50.572;7.234;2023-02-22T23:44:30;22.10;57.40
24087;DHT22;22893;50.572;7.234;2023-02-22T23:46:58;22.10;57.40
24087;DHT22;22893;50.572;7.234;2023-02-22T23:49:28;22.10;57.40
24087;DHT22;22893;50.572;7.234;2023-02-22T23:52:07;22.10;57.40
24087;DHT22;22893;50.572;7.234;2023-02-22T23:54:37;22.10;57.40
24087;DHT22;22893;50.572;7.234;2023-02-22T23:57:06;22.10;57.30
24087;DHT22;22893;50.572;7.234;2023-02-22T23:59:34;22.10;57.40
